首页
METAR-TAF:

METAR-TAF

机场 :

雅库茨克, 俄罗斯

纬度: 62-01N, 经度: 129-43E, 海拔: 103米

当前天气观测

该预报发布于14分钟前的12:00 UTC
风速4节,风向西
温度 1°C
湿度 69%
气压 1024 hPa
能见度10公里或以上
1500米以下无云,无积雨云

METAR: UEEE 091200Z 28002MPS CAVOK 01/M04 Q1024 R23L/29//60 NOSIG RMK QFE759

时间: 21:14 (12:14 UTC)

预报

该预报发布于1小时和14分钟前的11:00 UTC
预报有效从09日的 12点(UTC)到 10日的 18点(UTC)
风速6节,风向西转西北,有时为16节阵风
能见度10公里或以上
1500米以下无云,无积雨云

TAF: UEEE 091100Z 0912/1018 29003G08MPS CAVOK

超过4000个机场的气象观测和天气预报(METAR&TAF报告)。

可查询的气象台以黄色和红色小点在地图上表示。

将鼠标移到小点上方,可查看气象台名称。

然后点击查看天气观测和预报。

如需切换地图:点击带黑十字的绿色按钮放大地图;点击带横线的绿色按钮缩小地图;或者点击绿色箭头查看邻近地区的地图。


METAR-TAF: